createdAt,value
2019-03-12T00:01:19.390Z,95761.91
2019-03-12T00:03:49.310Z,95780.98
2019-03-12T00:06:19.530Z,95770.81
2019-03-12T00:08:49.541Z,95774.69
2019-03-12T00:11:19.543Z,95776.81
2019-03-12T00:13:49.527Z,95783.98
2019-03-12T00:16:19.464Z,95768.81
2019-03-12T00:18:50.513Z,95781.22
2019-03-12T00:21:20.340Z,95789.02
2019-03-12T00:23:50.280Z,95776.75
2019-03-12T00:26:20.100Z,95777.71
2019-03-12T00:28:50.039Z,95795.23
2019-03-12T00:31:19.935Z,95789.69
2019-03-12T00:33:50.084Z,95787.27
2019-03-12T00:36:20.039Z,95782.89
2019-03-12T00:38:50.070Z,95798.30
2019-03-12T00:41:20.321Z,95805.31
2019-03-12T00:43:50.322Z,95804.03
2019-03-12T00:46:20.122Z,95797.16
2019-03-12T00:48:50.134Z,95805.10
2019-03-12T00:51:19.940Z,95824.97
2019-03-12T00:53:49.813Z,95811.31
2019-03-12T00:56:19.658Z,95843.41
2019-03-12T00:58:49.684Z,95820.78
2019-03-12T01:01:19.566Z,95823.52
2019-03-12T01:03:49.478Z,95826.65
2019-03-12T01:06:19.427Z,95824.70
2019-03-12T01:08:49.335Z,95834.80
2019-03-12T01:11:19.647Z,95845.31
2019-03-12T01:13:49.566Z,95836.73
2019-03-12T01:16:19.596Z,95835.08
2019-03-12T01:18:49.641Z,95840.06
2019-03-12T01:21:19.652Z,95835.91
2019-03-12T01:23:49.920Z,95856.86
2019-03-12T01:26:19.857Z,95858.30
2019-03-12T01:28:49.832Z,95854.78
2019-03-12T01:31:19.841Z,95855.33
2019-03-12T01:33:49.755Z,95856.91
2019-03-12T01:36:19.613Z,95856.78
2019-03-12T01:38:49.480Z,95879.91
2019-03-12T01:41:19.343Z,95906.11
2019-03-12T01:43:49.308Z,95874.94
2019-03-12T01:46:19.282Z,95887.55
2019-03-12T01:48:49.218Z,95878.41
2019-03-12T01:51:19.083Z,95876.97
2019-03-12T01:53:48.969Z,95880.30
2019-03-12T01:56:18.933Z,95888.80
2019-03-12T01:58:48.988Z,95883.73
2019-03-12T02:01:18.895Z,95887.77
2019-03-12T02:03:48.914Z,95889.45
2019-03-12T02:06:18.852Z,95887.10
2019-03-12T02:08:48.917Z,95892.58
2019-03-12T02:11:18.815Z,95891.57
2019-03-12T02:13:48.682Z,95898.56
2019-03-12T02:16:19.480Z,95894.31
2019-03-12T02:18:49.551Z,95900.31
2019-03-12T02:21:19.456Z,95905.88
2019-03-12T02:23:49.397Z,95902.25
2019-03-12T02:26:19.397Z,95909.01
2019-03-12T02:28:49.324Z,95910.66
2019-03-12T02:31:19.243Z,95909.77
2019-03-12T02:33:49.202Z,95912.73
2019-03-12T02:36:19.096Z,95911.59
2019-03-12T02:38:49.029Z,95909.77
2019-03-12T02:41:18.919Z,95927.97
2019-03-12T02:43:48.893Z,95916.23
2019-03-12T02:46:18.730Z,95922.19
2019-03-12T02:48:48.711Z,95920.66
2019-03-12T02:51:18.625Z,95933.70
2019-03-12T02:53:48.687Z,95936.44
2019-03-12T02:56:18.588Z,95928.38
2019-03-12T02:58:48.698Z,95937.22
2019-03-12T03:01:18.596Z,95946.48
2019-03-12T03:03:48.552Z,95955.50
2019-03-12T03:06:40.479Z,95954.05
2019-03-12T03:09:10.497Z,95952.13
2019-03-12T03:11:40.487Z,95947.94
2019-03-12T03:14:33.547Z,95960.78
2019-03-12T03:17:03.576Z,95962.72
2019-03-12T03:19:33.633Z,95945.62
2019-03-12T03:22:03.610Z,95958.49
2019-03-12T03:24:33.553Z,95962.92
2019-03-12T03:27:03.485Z,95968.67
2019-03-12T03:29:33.542Z,95974.95
2019-03-12T03:32:03.477Z,95961.98
2019-03-12T03:34:33.450Z,95964.17
2019-03-12T03:37:03.469Z,95980.84
2019-03-12T03:39:33.393Z,95984.62
2019-03-12T03:42:03.400Z,95975.11
2019-03-12T03:44:33.375Z,95982.98
2019-03-12T03:47:03.253Z,95978.22
2019-03-12T03:49:33.137Z,95983.50
2019-03-12T03:52:03.075Z,95991.16
2019-03-12T03:54:32.953Z,96002.44
2019-03-12T03:57:02.895Z,95992.67
2019-03-12T03:59:32.802Z,95997.19
2019-03-12T04:02:02.666Z,95993.88
2019-03-12T04:04:33.628Z,96002.50
2019-03-12T04:07:03.616Z,96001.63
2019-03-12T04:09:33.468Z,96007.72
2019-03-12T04:12:03.505Z,96009.81
2019-03-12T04:14:33.470Z,96008.86
2019-03-12T04:17:03.481Z,96013.89
2019-03-12T04:19:33.439Z,96016.92
2019-03-12T04:22:03.377Z,96029.55
2019-03-12T04:24:33.338Z,96010.87
2019-03-12T04:27:03.317Z,96008.64
2019-03-12T04:29:33.287Z,96014.31
2019-03-12T04:32:03.289Z,96019.83
2019-03-12T04:34:36.166Z,96026.64
2019-03-12T04:37:06.103Z,96016.33
2019-03-12T04:39:35.941Z,96015.02
2019-03-12T04:42:06.240Z,96021.48
2019-03-12T04:44:36.124Z,96018.62
2019-03-12T04:47:06.152Z,96020.53
2019-03-12T04:49:36.090Z,96025.13
2019-03-12T04:52:06.025Z,96031.69
2019-03-12T04:54:35.963Z,96018.98
2019-03-12T04:57:05.993Z,96025.94
2019-03-12T04:59:35.910Z,96023.88
2019-03-12T05:02:05.922Z,96017.48
2019-03-12T05:04:36.103Z,96027.17
2019-03-12T05:07:07.023Z,96025.60
2019-03-12T05:09:36.858Z,96028.81
2019-03-12T05:12:06.796Z,96028.66
2019-03-12T05:14:38.057Z,96018.19
2019-03-12T05:17:25.524Z,96025.62
2019-03-12T05:19:55.386Z,96029.40
2019-03-12T05:22:25.945Z,96033.30
2019-03-12T05:24:55.785Z,96019.58
2019-03-12T05:27:25.812Z,96030.20
2019-03-12T05:29:55.670Z,96036.97
2019-03-12T05:32:25.575Z,96038.54
2019-03-12T05:34:57.142Z,96029.06
2019-03-12T05:37:27.068Z,96036.88
2019-03-12T05:39:57.090Z,96036.23
2019-03-12T05:42:26.880Z,96036.72
2019-03-12T05:44:56.784Z,96043.05
2019-03-12T05:47:26.696Z,96036.23
2019-03-12T05:49:56.631Z,96041.38
2019-03-12T05:52:26.538Z,96048.89
2019-03-12T05:54:56.412Z,96049.09
2019-03-12T05:57:26.312Z,96049.73
2019-03-12T05:59:56.262Z,96052.70
2019-03-12T06:02:26.111Z,96046.92
2019-03-12T06:04:55.958Z,96043.38
2019-03-12T06:07:25.874Z,96044.64
2019-03-12T06:09:55.854Z,96046.33
2019-03-12T06:12:25.727Z,96045.31
2019-03-12T06:14:55.596Z,96048.96
2019-03-12T06:17:25.623Z,96048.30
2019-03-12T06:19:55.609Z,96046.18
2019-03-12T06:22:25.488Z,96042.16
2019-03-12T06:24:55.395Z,96043.78
2019-03-12T06:27:25.236Z,96054.05
2019-03-12T06:29:55.118Z,96043.43
2019-03-12T06:32:41.243Z,96044.48
2019-03-12T06:35:15.332Z,96050.84
2019-03-12T06:38:07.285Z,96044.20
2019-03-12T06:40:55.258Z,96049.64
2019-03-12T06:43:46.995Z,96043.52
2019-03-12T06:46:39.664Z,96049.59
2019-03-12T06:49:30.952Z,96047.32
2019-03-12T06:52:18.830Z,96043.90
2019-03-12T06:55:00.476Z,96050.63
2019-03-12T06:57:42.922Z,96040.08
2019-03-12T07:00:32.973Z,96055.91
2019-03-12T07:03:20.790Z,96049.48
2019-03-12T07:06:16.223Z,96048.41
2019-03-12T07:09:03.706Z,96043.81
2019-03-12T07:11:57.317Z,96047.06
2019-03-12T07:14:44.651Z,96041.94
2019-03-12T07:17:19.234Z,96052.15
2019-03-12T07:20:06.905Z,96039.46
2019-03-12T07:22:55.487Z,96046.00
2019-03-12T07:25:32.322Z,96045.41
2019-03-12T07:28:21.337Z,96036.55
2019-03-12T07:31:10.248Z,96042.81
2019-03-12T07:34:01.591Z,96058.58
2019-03-12T07:37:02.360Z,96051.76
2019-03-12T07:40:00.491Z,96047.41
2019-03-12T07:42:55.274Z,96047.27
2019-03-12T07:45:42.069Z,96042.26
2019-03-12T07:48:28.438Z,96039.78
2019-03-12T07:51:32.425Z,96044.89
2019-03-12T07:54:39.514Z,96032.05
2019-03-12T07:57:43.509Z,96041.19
2019-03-12T08:00:31.284Z,96027.92
2019-03-12T08:03:21.534Z,96027.05
2019-03-12T08:06:10.445Z,96032.94
2019-03-12T08:08:59.264Z,96031.75
2019-03-12T08:11:33.481Z,96030.57
2019-03-12T08:14:17.913Z,96031.30
2019-03-12T08:17:25.017Z,96015.05
2019-03-12T08:20:13.857Z,96019.09
2019-03-12T08:23:06.431Z,96022.67
2019-03-12T08:25:44.590Z,95999.56
2019-03-12T08:28:36.362Z,95994.19
2019-03-12T08:31:31.644Z,95988.11
2019-03-12T08:34:16.200Z,95979.00
2019-03-12T08:37:07.904Z,95976.19
2019-03-12T08:39:51.027Z,95965.42
2019-03-12T08:42:54.535Z,95966.66
2019-03-12T08:45:26.222Z,95969.02
2019-03-12T08:48:03.107Z,95964.27
2019-03-12T08:50:58.046Z,95974.19
2019-03-12T08:53:39.708Z,95984.67
2019-03-12T08:56:27.751Z,95979.95
2019-03-12T08:59:11.646Z,95972.56
2019-03-12T09:02:02.416Z,95977.02
2019-03-12T09:07:40.203Z,95957.00
2019-03-12T09:10:20.760Z,95949.14
2019-03-12T09:13:21.875Z,95944.84
2019-03-12T09:16:10.882Z,95943.48
2019-03-12T09:19:01.285Z,95936.70
2019-03-12T09:21:45.722Z,95941.92
2019-03-12T09:24:26.854Z,95936.75
2019-03-12T09:27:13.747Z,95940.03
2019-03-12T09:30:08.621Z,95930.08
2019-03-12T09:32:56.944Z,95927.19
2019-03-12T09:35:45.815Z,95920.78
2019-03-12T09:38:31.861Z,95920.20
2019-03-12T09:41:19.753Z,95918.16
2019-03-12T09:44:10.347Z,95916.72
2019-03-12T09:46:50.785Z,95906.56
2019-03-12T09:49:42.792Z,95901.44
2019-03-12T09:52:21.976Z,95888.90
2019-03-12T09:54:56.662Z,95884.64
2019-03-12T09:57:38.254Z,95880.77
2019-03-12T10:00:32.057Z,95876.20
2019-03-12T10:03:27.468Z,95872.77
2019-03-12T10:06:09.422Z,95873.82
2019-03-12T10:09:01.381Z,95873.88
2019-03-12T10:11:47.878Z,95877.91
2019-03-12T10:14:29.903Z,95872.98
2019-03-12T10:17:11.229Z,95877.11
2019-03-12T10:19:58.884Z,95868.05
2019-03-12T10:22:46.509Z,95861.69
2019-03-12T10:25:30.342Z,95835.16
2019-03-12T10:28:19.340Z,95846.91
2019-03-12T10:31:19.939Z,95831.75
2019-03-12T10:34:04.438Z,95829.55
2019-03-12T10:36:40.579Z,95826.35
2019-03-12T10:40:05.912Z,95830.03
2019-03-12T10:42:41.907Z,95820.60
2019-03-12T10:45:25.199Z,95818.65
2019-03-12T10:47:55.572Z,95817.27
2019-03-12T10:50:25.625Z,95825.39
2019-03-12T10:52:55.593Z,95820.30
2019-03-12T10:55:25.604Z,95812.31
2019-03-12T10:57:55.577Z,95806.59
2019-03-12T11:00:25.726Z,95810.71
2019-03-12T11:02:55.719Z,95786.64
2019-03-12T11:05:25.762Z,95789.34
2019-03-12T11:07:55.867Z,95779.88
2019-03-12T11:10:25.970Z,95767.66
2019-03-12T11:12:56.016Z,95765.23
2019-03-12T11:15:26.063Z,95751.66
2019-03-12T11:17:56.094Z,95755.13
2019-03-12T11:20:26.062Z,95755.09
2019-03-12T11:22:56.503Z,95744.47
2019-03-12T11:25:28.157Z,95736.48
2019-03-12T11:27:58.189Z,95729.31
2019-03-12T11:30:28.287Z,95729.68
2019-03-12T11:32:58.315Z,95715.97
2019-03-12T11:35:38.172Z,95738.57
2019-03-12T11:37:59.991Z,95718.84
2019-03-12T11:40:32.258Z,95699.73
2019-03-12T11:43:01.576Z,95692.31
2019-03-12T11:45:36.852Z,95678.89
2019-03-12T11:48:03.268Z,95679.64
2019-03-12T11:50:34.077Z,95667.23
2019-03-12T11:53:04.281Z,95667.52
2019-03-12T11:55:34.258Z,95660.63
2019-03-12T11:58:04.209Z,95647.97
2019-03-12T12:00:42.733Z,95646.80
2019-03-12T12:03:12.725Z,95634.80
2019-03-12T12:05:42.711Z,95635.42
2019-03-12T12:08:12.964Z,95621.39
2019-03-12T12:10:43.093Z,95618.16
2019-03-12T12:13:13.042Z,95609.90
2019-03-12T12:15:43.099Z,95609.31
2019-03-12T12:18:13.116Z,95598.97
2019-03-12T12:20:43.063Z,95595.61
2019-03-12T12:23:13.022Z,95591.27
2019-03-12T12:25:42.909Z,95590.38
2019-03-12T12:28:12.918Z,95578.91
2019-03-12T12:30:42.887Z,95581.02
2019-03-12T12:33:12.900Z,95571.48
2019-03-12T12:35:42.799Z,95558.62
2019-03-12T12:38:12.818Z,95558.98
2019-03-12T12:40:42.718Z,95549.39
2019-03-12T12:43:12.734Z,95547.23
2019-03-12T12:45:42.702Z,95541.24
2019-03-12T12:48:12.767Z,95537.58
2019-03-12T12:50:42.746Z,95534.65
2019-03-12T12:53:12.700Z,95527.04
2019-03-12T12:55:42.620Z,95516.67
2019-03-12T12:58:12.893Z,95503.27
2019-03-12T13:00:43.303Z,95502.48
2019-03-12T13:03:13.408Z,95493.73
2019-03-12T13:05:43.276Z,95501.66
2019-03-12T13:08:17.008Z,95487.84
2019-03-12T13:10:46.907Z,95477.78
2019-03-12T13:13:16.972Z,95485.09
2019-03-12T13:15:46.879Z,95478.66
2019-03-12T13:18:16.902Z,95468.66
2019-03-12T13:20:46.927Z,95456.39
2019-03-12T13:23:16.859Z,95448.07
2019-03-12T13:25:46.776Z,95457.11
2019-03-12T13:28:16.685Z,95447.44
2019-03-12T13:30:46.644Z,95441.05
2019-03-12T13:33:16.587Z,95449.88
2019-03-12T13:35:49.296Z,95442.74
2019-03-12T13:38:18.294Z,95431.72
2019-03-12T13:40:48.397Z,95423.90
2019-03-12T13:43:18.338Z,95417.27
2019-03-12T13:45:48.365Z,95411.83
2019-03-12T13:48:18.392Z,95407.00
2019-03-12T13:50:48.402Z,95400.25
2019-03-12T13:53:18.428Z,95396.89
2019-03-12T13:55:48.537Z,95386.70
2019-03-12T13:58:18.758Z,95379.30
2019-03-12T14:00:48.717Z,95373.50
2019-03-12T14:03:18.665Z,95376.22
2019-03-12T14:05:48.571Z,95369.92
2019-03-12T14:08:18.561Z,95369.19
2019-03-12T14:10:48.454Z,95351.58
2019-03-12T14:13:18.593Z,95352.89
2019-03-12T14:15:49.719Z,95349.36
2019-03-12T14:18:19.706Z,95339.03
2019-03-12T14:20:58.691Z,95339.45
2019-03-12T14:23:34.455Z,95329.56
2019-03-12T14:26:04.735Z,95331.36
2019-03-12T14:28:34.797Z,95320.47
2019-03-12T14:31:05.577Z,95315.97
2019-03-12T14:33:35.727Z,95312.75
2019-03-12T14:36:05.784Z,95309.64
2019-03-12T14:38:35.733Z,95322.09
2019-03-12T14:41:05.945Z,95302.98
2019-03-12T14:43:35.892Z,95305.63
2019-03-12T14:46:06.133Z,95297.33
2019-03-12T14:48:44.286Z,95305.37
2019-03-12T14:51:29.836Z,95294.56
2019-03-12T14:54:00.011Z,95281.85
2019-03-12T14:56:31.193Z,95279.98
2019-03-12T14:59:01.386Z,95267.23
2019-03-12T15:01:31.414Z,95263.17
2019-03-12T15:04:01.403Z,95259.05
2019-03-12T15:06:31.347Z,95251.05
2019-03-12T15:09:01.301Z,95235.99
2019-03-12T15:11:32.863Z,95235.68
2019-03-12T15:14:02.840Z,95226.14
2019-03-12T15:16:32.754Z,95216.63
2019-03-12T15:19:02.689Z,95215.45
2019-03-12T15:21:32.761Z,95207.23
2019-03-12T15:24:02.647Z,95196.02
2019-03-12T15:26:32.594Z,95201.98
2019-03-12T15:29:02.516Z,95192.44
2019-03-12T15:31:32.474Z,95194.97
2019-03-12T15:34:02.446Z,95189.07
2019-03-12T15:36:32.473Z,95184.59
2019-03-12T15:39:02.289Z,95184.84
2019-03-12T15:41:33.863Z,95179.17
2019-03-12T15:44:04.099Z,95169.37
2019-03-12T15:46:34.159Z,95160.70
2019-03-12T15:49:04.211Z,95151.41
2019-03-12T15:51:34.179Z,95140.91
2019-03-12T15:54:04.487Z,95129.70
2019-03-12T15:56:34.424Z,95125.19
2019-03-12T15:59:04.392Z,95126.69
2019-03-12T16:01:34.293Z,95113.89
2019-03-12T16:04:04.220Z,95102.45
2019-03-12T16:06:35.229Z,95093.86
2019-03-12T16:09:07.384Z,95099.85
2019-03-12T16:11:37.713Z,95097.03
2019-03-12T16:14:07.720Z,95084.72
2019-03-12T16:16:38.742Z,95088.44
2019-03-12T16:19:08.720Z,95084.13
2019-03-12T16:21:40.455Z,95081.56
2019-03-12T16:24:10.235Z,95080.41
2019-03-12T16:26:40.205Z,95077.55
2019-03-12T16:29:10.020Z,95069.05
2019-03-12T16:31:40.063Z,95062.25
2019-03-12T16:34:10.203Z,95058.00
2019-03-12T16:36:40.216Z,95053.56
2019-03-12T16:39:10.299Z,95046.75
2019-03-12T16:41:40.271Z,95038.69
2019-03-12T16:44:10.308Z,95031.87
2019-03-12T16:46:40.338Z,95026.55
2019-03-12T16:49:10.303Z,95025.95
2019-03-12T16:51:40.130Z,95024.37
2019-03-12T16:54:10.000Z,95014.62
2019-03-12T16:56:45.130Z,95004.52
2019-03-12T16:59:11.654Z,95006.19
2019-03-12T17:01:41.585Z,95002.33
2019-03-12T17:04:11.541Z,94990.81
2019-03-12T17:06:41.499Z,94986.08
2019-03-12T17:09:11.582Z,94975.72
2019-03-12T17:11:41.955Z,94968.92
2019-03-12T17:14:11.855Z,94967.44
2019-03-12T17:16:41.908Z,94964.66
2019-03-12T17:19:11.820Z,94955.20
2019-03-12T17:21:41.816Z,94952.27
2019-03-12T17:24:11.713Z,94947.83
2019-03-12T17:26:41.678Z,94935.79
2019-03-12T17:29:11.533Z,94940.51
2019-03-12T17:31:41.541Z,94940.00
2019-03-12T17:34:11.386Z,94934.97
2019-03-12T17:36:41.252Z,94932.66
2019-03-12T17:39:11.241Z,94926.94
2019-03-12T17:41:42.615Z,94928.95
2019-03-12T17:44:12.532Z,94922.85
2019-03-12T17:46:43.956Z,94921.30
2019-03-12T17:49:13.840Z,94917.56
2019-03-12T17:51:43.768Z,94916.84
2019-03-12T17:54:13.606Z,94904.46
2019-03-12T17:56:43.569Z,94902.20
2019-03-12T17:59:14.248Z,94895.25
2019-03-12T18:01:44.223Z,94890.66
2019-03-12T18:04:14.079Z,94896.42
2019-03-12T18:06:44.080Z,94889.58
2019-03-12T18:09:14.243Z,94892.44
2019-03-12T18:11:44.332Z,94888.36
2019-03-12T18:14:14.230Z,94871.56
2019-03-12T18:16:44.233Z,94874.61
2019-03-12T18:19:14.142Z,94873.40
2019-03-12T18:21:44.256Z,94872.06
2019-03-12T18:24:14.128Z,94874.55
2019-03-12T18:26:44.133Z,94874.00
2019-03-12T18:29:14.074Z,94863.00
2019-03-12T18:31:43.911Z,94850.59
2019-03-12T18:34:13.749Z,94845.86
2019-03-12T18:36:43.664Z,94846.91
2019-03-12T18:39:13.620Z,94837.78
2019-03-12T18:41:43.619Z,94827.63
2019-03-12T18:44:13.548Z,94825.78
2019-03-12T18:46:43.442Z,94828.57
2019-03-12T18:49:13.395Z,94821.85
2019-03-12T18:51:43.360Z,94805.42
2019-03-12T18:54:13.270Z,94806.83
2019-03-12T18:56:43.223Z,94803.73
2019-03-12T18:59:13.081Z,94795.47
2019-03-12T19:01:43.040Z,94790.65
2019-03-12T19:04:12.875Z,94790.47
2019-03-12T19:06:42.851Z,94780.97
2019-03-12T19:09:12.803Z,94781.45
2019-03-12T19:11:42.768Z,94777.51
2019-03-12T19:14:12.818Z,94773.11
2019-03-12T19:16:42.704Z,94774.90
2019-03-12T19:19:12.710Z,94767.67
2019-03-12T19:21:42.634Z,94763.69
2019-03-12T19:24:13.704Z,94753.67
2019-03-12T19:26:43.694Z,94747.97
2019-03-12T19:29:13.669Z,94735.27
2019-03-12T19:32:06.420Z,94729.80
2019-03-12T19:34:37.239Z,94715.75
2019-03-12T19:37:08.261Z,94719.27
2019-03-12T19:39:38.637Z,94714.70
2019-03-12T19:42:08.669Z,94707.06
2019-03-12T19:44:38.692Z,94698.14
2019-03-12T19:47:08.701Z,94700.56
2019-03-12T19:49:38.620Z,94691.66
2019-03-12T19:52:08.714Z,94681.09
2019-03-12T19:54:38.652Z,94674.23
2019-03-12T19:57:08.696Z,94674.48
2019-03-12T19:59:38.685Z,94668.47
2019-03-12T20:02:16.175Z,94667.69
2019-03-12T20:04:47.159Z,94672.23
2019-03-12T20:07:14.006Z,94666.71
2019-03-12T20:09:50.353Z,94658.76
2019-03-12T20:12:53.411Z,94651.59
2019-03-12T20:16:12.481Z,94650.77
2019-03-12T20:19:19.704Z,94650.59
2019-03-12T20:22:35.097Z,94643.00
2019-03-12T20:25:49.931Z,94630.78
2019-03-12T20:29:03.485Z,94618.31
2019-03-12T20:32:32.417Z,94618.23
2019-03-12T20:35:43.689Z,94607.96
2019-03-12T20:38:49.625Z,94608.20
2019-03-12T20:41:55.883Z,94607.80
2019-03-12T20:45:07.097Z,94604.14
2019-03-12T20:48:09.338Z,94593.64
2019-03-12T20:51:12.970Z,94595.77
2019-03-12T20:54:18.055Z,94577.62
2019-03-12T20:57:29.969Z,94573.94
2019-03-12T21:00:37.602Z,94562.81
2019-03-12T21:04:05.769Z,94558.38
2019-03-12T21:07:44.588Z,94553.05
2019-03-12T21:11:11.211Z,94548.67
2019-03-12T21:14:52.058Z,94555.41
2019-03-12T21:18:17.251Z,94543.58
2019-03-12T21:21:18.793Z,94546.92
2019-03-12T21:24:19.891Z,94538.05
2019-03-12T21:27:23.856Z,94524.42
2019-03-12T21:29:52.863Z,94524.42
2019-03-12T21:32:23.005Z,94516.02
2019-03-12T21:34:53.037Z,94512.42
2019-03-12T21:37:23.062Z,94502.53
2019-03-12T21:39:55.601Z,94489.59
2019-03-12T21:42:25.510Z,94494.92
2019-03-12T21:44:56.882Z,94482.84
2019-03-12T21:47:26.871Z,94472.30
2019-03-12T21:49:56.945Z,94476.42
2019-03-12T21:52:27.012Z,94463.08
2019-03-12T21:54:56.976Z,94459.66
2019-03-12T21:57:26.931Z,94462.10
2019-03-12T21:59:57.075Z,94453.58
2019-03-12T22:02:28.155Z,94454.77
2019-03-12T22:04:58.178Z,94451.93
2019-03-12T22:07:28.171Z,94452.55
2019-03-12T22:09:58.133Z,94448.92
2019-03-12T22:12:28.072Z,94440.38
2019-03-12T22:14:57.914Z,94430.94
2019-03-12T22:17:28.968Z,94422.36
2019-03-12T22:19:59.047Z,94417.62
2019-03-12T22:22:46.616Z,94414.07
2019-03-12T22:25:17.708Z,94408.23
2019-03-12T22:27:47.684Z,94408.80
2019-03-12T22:30:19.977Z,94403.02
2019-03-12T22:32:50.033Z,94398.75
2019-03-12T22:35:20.198Z,94387.95
2019-03-12T22:37:50.298Z,94388.31
2019-03-12T22:40:20.339Z,94380.24
2019-03-12T22:42:50.307Z,94372.68
2019-03-12T22:45:20.299Z,94360.83
2019-03-12T22:47:50.328Z,94358.38
2019-03-12T22:50:20.365Z,94359.59
2019-03-12T22:52:50.391Z,94345.94
2019-03-12T22:55:20.396Z,94344.27
2019-03-12T22:57:50.677Z,94338.66
2019-03-12T23:00:39.164Z,94333.60
2019-03-12T23:03:26.998Z,94333.25
2019-03-12T23:06:15.000Z,94326.39
2019-03-12T23:09:04.324Z,94321.09
2019-03-12T23:11:36.034Z,94322.36
2019-03-12T23:14:07.047Z,94318.16
2019-03-12T23:16:38.858Z,94314.20
2019-03-12T23:19:08.794Z,94315.81
2019-03-12T23:21:39.066Z,94303.93
2019-03-12T23:24:08.989Z,94299.61
2019-03-12T23:26:40.047Z,94301.71
2019-03-12T23:29:10.173Z,94301.13
2019-03-12T23:31:40.168Z,94295.45
2019-03-12T23:34:10.173Z,94298.30
2019-03-12T23:36:40.241Z,94300.84
2019-03-12T23:39:10.664Z,94295.08
2019-03-12T23:41:40.646Z,94290.82
2019-03-12T23:44:10.773Z,94297.14
2019-03-12T23:46:40.814Z,94304.61
2019-03-12T23:49:10.856Z,94294.65
2019-03-12T23:51:40.838Z,94305.33
2019-03-12T23:54:11.079Z,94304.65
2019-03-12T23:56:41.157Z,94312.89
2019-03-12T23:59:11.089Z,94311.09
